sensor_id;sensor_type;location;lat;lon;timestamp;pressure;altitude;pressure_sealevel;temperature;humidity
23677;BME280;31493;49.058;12.190;2023-03-22T00:00:45;95873.59;;;9.59;97.82
23677;BME280;31493;49.058;12.190;2023-03-22T00:03:12;95873.19;;;9.53;98.54
23677;BME280;31493;49.058;12.190;2023-03-22T00:05:39;95880.00;;;9.54;98.18
23677;BME280;31493;49.058;12.190;2023-03-22T00:08:06;95874.59;;;9.57;98.01
23677;BME280;31493;49.058;12.190;2023-03-22T00:10:36;95877.53;;;9.52;98.89
23677;BME280;31493;49.058;12.190;2023-03-22T00:13:03;95876.69;;;9.52;98.64
23677;BME280;31493;49.058;12.190;2023-03-22T00:15:30;95869.03;;;9.50;98.91
23677;BME280;31493;49.058;12.190;2023-03-22T00:17:59;95870.25;;;9.45;100.00
23677;BME280;31493;49.058;12.190;2023-03-22T00:20:27;95874.41;;;9.47;99.29
23677;BME280;31493;49.058;12.190;2023-03-22T00:22:55;95863.44;;;9.56;98.34
23677;BME280;31493;49.058;12.190;2023-03-22T00:25:22;95875.94;;;9.50;99.31
23677;BME280;31493;49.058;12.190;2023-03-22T00:27:49;95868.72;;;9.55;99.17
23677;BME280;31493;49.058;12.190;2023-03-22T00:30:16;95865.00;;;9.46;100.00
23677;BME280;31493;49.058;12.190;2023-03-22T00:32:43;95871.94;;;9.46;100.00
23677;BME280;31493;49.058;12.190;2023-03-22T00:35:12;95861.19;;;9.64;98.24
23677;BME280;31493;49.058;12.190;2023-03-22T00:37:39;95870.38;;;9.56;99.34
23677;BME280;31493;49.058;12.190;2023-03-22T00:40:09;95877.81;;;9.48;100.00
23677;BME280;31493;49.058;12.190;2023-03-22T00:42:38;95865.00;;;9.46;100.00
23677;BME280;31493;49.058;12.190;2023-03-22T00:45:07;95868.09;;;9.51;99.78
23677;BME280;31493;49.058;12.190;2023-03-22T00:47:35;95866.72;;;9.33;100.00
23677;BME280;31493;49.058;12.190;2023-03-22T00:50:03;95859.78;;;9.21;100.00
23677;BME280;31493;49.058;12.190;2023-03-22T00:52:31;95862.19;;;9.24;100.00
23677;BME280;31493;49.058;12.190;2023-03-22T00:54:59;95854.56;;;9.35;100.00
23677;BME280;31493;49.058;12.190;2023-03-22T00:57:25;95859.50;;;9.25;100.00
23677;BME280;31493;49.058;12.190;2023-03-22T00:59:52;95866.31;;;9.26;100.00
23677;BME280;31493;49.058;12.190;2023-03-22T01:02:20;95858.78;;;9.23;100.00
23677;BME280;31493;49.058;12.190;2023-03-22T01:04:54;95860.69;;;9.07;100.00
23677;BME280;31493;49.058;12.190;2023-03-22T01:07:22;95862.50;;;8.79;100.00
23677;BME280;31493;49.058;12.190;2023-03-22T01:09:51;95864.97;;;8.81;100.00
23677;BME280;31493;49.058;12.190;2023-03-22T01:12:18;95860.47;;;8.70;100.00
23677;BME280;31493;49.058;12.190;2023-03-22T01:14:45;95858.31;;;8.77;100.00
23677;BME280;31493;49.058;12.190;2023-03-22T01:17:12;95850.91;;;8.72;100.00
23677;BME280;31493;49.058;12.190;2023-03-22T01:19:40;95857.22;;;8.81;100.00
23677;BME280;31493;49.058;12.190;2023-03-22T01:22:07;95849.91;;;8.87;100.00
23677;BME280;31493;49.058;12.190;2023-03-22T01:24:34;95841.03;;;8.92;100.00
23677;BME280;31493;49.058;12.190;2023-03-22T01:27:03;95847.66;;;8.96;100.00
23677;BME280;31493;49.058;12.190;2023-03-22T01:29:30;95837.44;;;8.94;100.00
23677;BME280;31493;49.058;12.190;2023-03-22T01:31:57;95842.63;;;9.07;100.00
23677;BME280;31493;49.058;12.190;2023-03-22T01:34:24;95838.34;;;8.93;100.00
23677;BME280;31493;49.058;12.190;2023-03-22T01:36:52;95826.78;;;8.86;100.00
23677;BME280;31493;49.058;12.190;2023-03-22T01:39:19;95839.00;;;8.70;100.00
23677;BME280;31493;49.058;12.190;2023-03-22T01:41:46;95825.03;;;8.86;100.00
23677;BME280;31493;49.058;12.190;2023-03-22T01:44:17;95829.66;;;8.81;100.00
23677;BME280;31493;49.058;12.190;2023-03-22T01:46:46;95827.25;;;8.66;100.00
23677;BME280;31493;49.058;12.190;2023-03-22T01:49:16;95821.41;;;8.49;100.00
23677;BME280;31493;49.058;12.190;2023-03-22T01:51:47;95826.34;;;8.52;100.00
23677;BME280;31493;49.058;12.190;2023-03-22T01:54:18;95822.94;;;8.52;100.00
23677;BME280;31493;49.058;12.190;2023-03-22T01:56:47;95829.56;;;8.56;100.00
23677;BME280;31493;49.058;12.190;2023-03-22T01:59:15;95830.69;;;8.79;100.00
23677;BME280;31493;49.058;12.190;2023-03-22T02:01:42;95829.13;;;8.76;100.00
23677;BME280;31493;49.058;12.190;2023-03-22T02:04:12;95823.56;;;8.82;100.00
23677;BME280;31493;49.058;12.190;2023-03-22T02:06:41;95814.97;;;8.42;100.00
23677;BME280;31493;49.058;12.190;2023-03-22T02:09:11;95820.31;;;8.39;100.00
23677;BME280;31493;49.058;12.190;2023-03-22T02:11:40;95823.28;;;8.19;100.00
23677;BME280;31493;49.058;12.190;2023-03-22T02:14:31;95813.91;;;8.18;100.00
23677;BME280;31493;49.058;12.190;2023-03-22T02:17:09;95825.00;;;8.32;100.00
23677;BME280;31493;49.058;12.190;2023-03-22T02:20:17;95810.25;;;8.34;100.00
23677;BME280;31493;49.058;12.190;2023-03-22T02:23:25;95818.03;;;8.20;100.00
23677;BME280;31493;49.058;12.190;2023-03-22T02:29:22;95798.50;;;7.75;100.00
23677;BME280;31493;49.058;12.190;2023-03-22T02:32:14;95807.16;;;7.74;100.00
23677;BME280;31493;49.058;12.190;2023-03-22T02:35:32;95802.63;;;7.77;100.00
23677;BME280;31493;49.058;12.190;2023-03-22T02:41:07;95783.78;;;7.63;100.00
23677;BME280;31493;49.058;12.190;2023-03-22T02:43:37;95781.47;;;7.72;100.00
23677;BME280;31493;49.058;12.190;2023-03-22T02:46:14;95777.06;;;7.74;100.00
23677;BME280;31493;49.058;12.190;2023-03-22T02:48:51;95768.97;;;8.07;100.00
23677;BME280;31493;49.058;12.190;2023-03-22T02:51:23;95764.53;;;8.24;100.00
23677;BME280;31493;49.058;12.190;2023-03-22T02:53:55;95777.50;;;8.37;100.00
23677;BME280;31493;49.058;12.190;2023-03-22T02:56:28;95778.09;;;8.40;100.00
23677;BME280;31493;49.058;12.190;2023-03-22T02:58:58;95783.09;;;8.43;100.00
23677;BME280;31493;49.058;12.190;2023-03-22T03:01:29;95786.09;;;8.50;100.00
23677;BME280;31493;49.058;12.190;2023-03-22T03:04:01;95791.16;;;8.51;100.00
23677;BME280;31493;49.058;12.190;2023-03-22T03:06:33;95798.06;;;8.51;100.00
23677;BME280;31493;49.058;12.190;2023-03-22T03:09:04;95788.00;;;8.60;100.00
23677;BME280;31493;49.058;12.190;2023-03-22T03:11:33;95783.66;;;8.61;100.00
23677;BME280;31493;49.058;12.190;2023-03-22T03:14:01;95788.63;;;8.64;100.00
23677;BME280;31493;49.058;12.190;2023-03-22T03:16:30;95782.19;;;8.57;100.00
23677;BME280;31493;49.058;12.190;2023-03-22T03:19:02;95789.50;;;8.50;100.00
23677;BME280;31493;49.058;12.190;2023-03-22T03:21:38;95781.06;;;8.48;100.00
23677;BME280;31493;49.058;12.190;2023-03-22T03:24:17;95773.88;;;8.66;100.00
23677;BME280;31493;49.058;12.190;2023-03-22T03:26:53;95777.75;;;8.59;100.00
23677;BME280;31493;49.058;12.190;2023-03-22T03:29:28;95775.53;;;8.67;100.00
23677;BME280;31493;49.058;12.190;2023-03-22T03:32:03;95786.06;;;8.77;100.00
23677;BME280;31493;49.058;12.190;2023-03-22T03:34:36;95780.41;;;8.72;100.00
23677;BME280;31493;49.058;12.190;2023-03-22T03:37:08;95785.84;;;8.67;100.00
23677;BME280;31493;49.058;12.190;2023-03-22T03:39:39;95796.97;;;8.55;100.00
23677;BME280;31493;49.058;12.190;2023-03-22T03:42:11;95787.81;;;8.37;100.00
23677;BME280;31493;49.058;12.190;2023-03-22T03:44:40;95783.94;;;8.29;100.00
23677;BME280;31493;49.058;12.190;2023-03-22T03:47:09;95790.47;;;8.35;100.00
23677;BME280;31493;49.058;12.190;2023-03-22T03:49:36;95787.13;;;8.06;100.00
23677;BME280;31493;49.058;12.190;2023-03-22T03:52:04;95784.72;;;8.17;100.00
23677;BME280;31493;49.058;12.190;2023-03-22T03:54:31;95781.50;;;8.14;100.00
23677;BME280;31493;49.058;12.190;2023-03-22T03:56:59;95790.91;;;8.00;100.00
23677;BME280;31493;49.058;12.190;2023-03-22T03:59:27;95794.22;;;8.02;100.00
23677;BME280;31493;49.058;12.190;2023-03-22T04:01:54;95802.22;;;7.98;100.00
23677;BME280;31493;49.058;12.190;2023-03-22T04:04:23;95809.13;;;7.97;100.00
23677;BME280;31493;49.058;12.190;2023-03-22T04:06:52;95800.94;;;7.91;100.00
23677;BME280;31493;49.058;12.190;2023-03-22T04:09:22;95800.94;;;7.91;100.00
23677;BME280;31493;49.058;12.190;2023-03-22T04:11:49;95795.72;;;7.78;100.00
23677;BME280;31493;49.058;12.190;2023-03-22T04:14:16;95791.59;;;7.75;100.00
23677;BME280;31493;49.058;12.190;2023-03-22T04:16:44;95785.88;;;7.70;100.00
23677;BME280;31493;49.058;12.190;2023-03-22T04:19:11;95786.53;;;7.74;100.00
23677;BME280;31493;49.058;12.190;2023-03-22T04:21:39;95793.25;;;7.76;100.00
23677;BME280;31493;49.058;12.190;2023-03-22T04:24:06;95786.44;;;7.75;100.00
23677;BME280;31493;49.058;12.190;2023-03-22T04:26:33;95789.84;;;7.76;100.00
23677;BME280;31493;49.058;12.190;2023-03-22T04:29:00;95792.53;;;7.74;100.00
23677;BME280;31493;49.058;12.190;2023-03-22T04:31:28;95789.13;;;7.74;100.00
23677;BME280;31493;49.058;12.190;2023-03-22T04:33:57;95791.25;;;7.67;100.00
23677;BME280;31493;49.058;12.190;2023-03-22T04:36:30;95783.69;;;7.64;100.00
23677;BME280;31493;49.058;12.190;2023-03-22T04:39:02;95788.94;;;7.63;100.00
23677;BME280;31493;49.058;12.190;2023-03-22T04:41:30;95775.31;;;7.61;100.00
23677;BME280;31493;49.058;12.190;2023-03-22T04:43:57;95782.97;;;7.62;100.00
23677;BME280;31493;49.058;12.190;2023-03-22T04:46:28;95779.09;;;7.55;100.00
23677;BME280;31493;49.058;12.190;2023-03-22T04:48:56;95782.22;;;7.60;100.00
23677;BME280;31493;49.058;12.190;2023-03-22T04:51:24;95788.75;;;7.51;100.00
23677;BME280;31493;49.058;12.190;2023-03-22T04:53:51;95777.44;;;7.54;100.00
23677;BME280;31493;49.058;12.190;2023-03-22T04:56:19;95788.38;;;7.58;100.00
23677;BME280;31493;49.058;12.190;2023-03-22T04:58:46;95774.69;;;7.57;100.00
23677;BME280;31493;49.058;12.190;2023-03-22T05:01:15;95790.88;;;7.59;100.00
23677;BME280;31493;49.058;12.190;2023-03-22T05:03:42;95788.50;;;7.56;100.00
23677;BME280;31493;49.058;12.190;2023-03-22T05:06:13;95786.91;;;7.53;100.00
23677;BME280;31493;49.058;12.190;2023-03-22T05:08:40;95801.81;;;7.63;100.00
23677;BME280;31493;49.058;12.190;2023-03-22T05:11:09;95796.38;;;7.53;100.00
23677;BME280;31493;49.058;12.190;2023-03-22T05:13:38;95792.53;;;7.46;100.00
23677;BME280;31493;49.058;12.190;2023-03-22T05:16:06;95787.09;;;7.36;100.00
23677;BME280;31493;49.058;12.190;2023-03-22T05:18:33;95797.13;;;7.41;100.00
23677;BME280;31493;49.058;12.190;2023-03-22T05:21:03;95796.13;;;7.43;100.00
23677;BME280;31493;49.058;12.190;2023-03-22T05:23:32;95794.53;;;7.41;100.00
23677;BME280;31493;49.058;12.190;2023-03-22T05:25:59;95781.56;;;7.42;100.00
23677;BME280;31493;49.058;12.190;2023-03-22T05:28:28;95783.13;;;7.59;100.00
23677;BME280;31493;49.058;12.190;2023-03-22T05:30:56;95788.84;;;7.50;100.00
23677;BME280;31493;49.058;12.190;2023-03-22T05:33:23;95794.94;;;7.49;100.00
23677;BME280;31493;49.058;12.190;2023-03-22T05:35:52;95796.38;;;7.53;100.00
23677;BME280;31493;49.058;12.190;2023-03-22T05:38:19;95795.09;;;7.46;100.00
23677;BME280;31493;49.058;12.190;2023-03-22T05:40:48;95792.81;;;7.56;100.00
23677;BME280;31493;49.058;12.190;2023-03-22T05:43:16;95796.59;;;7.50;100.00
23677;BME280;31493;49.058;12.190;2023-03-22T05:45:43;95794.84;;;7.50;100.00
23677;BME280;31493;49.058;12.190;2023-03-22T05:48:12;95790.78;;;7.46;100.00
23677;BME280;31493;49.058;12.190;2023-03-22T05:50:39;95799.44;;;7.45;100.00
23677;BME280;31493;49.058;12.190;2023-03-22T05:53:06;95792.06;;;7.39;100.00
23677;BME280;31493;49.058;12.190;2023-03-22T05:55:33;95785.72;;;7.45;100.00
23677;BME280;31493;49.058;12.190;2023-03-22T05:58:01;95783.34;;;7.56;100.00
23677;BME280;31493;49.058;12.190;2023-03-22T06:00:30;95783.50;;;7.67;100.00
23677;BME280;31493;49.058;12.190;2023-03-22T06:02:58;95780.56;;;7.73;100.00
23677;BME280;31493;49.058;12.190;2023-03-22T06:05:29;95781.19;;;7.77;100.00
23677;BME280;31493;49.058;12.190;2023-03-22T06:07:57;95793.91;;;7.80;100.00
23677;BME280;31493;49.058;12.190;2023-03-22T06:10:24;95793.31;;;7.89;100.00
23677;BME280;31493;49.058;12.190;2023-03-22T06:12:53;95798.75;;;7.99;100.00
23677;BME280;31493;49.058;12.190;2023-03-22T06:15:22;95801.13;;;8.02;100.00
23677;BME280;31493;49.058;12.190;2023-03-22T06:17:49;95801.22;;;8.00;100.00
23677;BME280;31493;49.058;12.190;2023-03-22T06:20:16;95793.22;;;8.05;100.00
23677;BME280;31493;49.058;12.190;2023-03-22T06:22:44;95805.28;;;8.04;100.00
23677;BME280;31493;49.058;12.190;2023-03-22T06:25:11;95798.06;;;8.09;100.00
23677;BME280;31493;49.058;12.190;2023-03-22T06:27:39;95800.25;;;8.16;100.00
23677;BME280;31493;49.058;12.190;2023-03-22T06:30:07;95806.59;;;8.24;100.00
23677;BME280;31493;49.058;12.190;2023-03-22T06:32:35;95810.13;;;8.23;100.00
23677;BME280;31493;49.058;12.190;2023-03-22T06:35:03;95806.59;;;8.24;100.00
23677;BME280;31493;49.058;12.190;2023-03-22T06:37:30;95800.25;;;8.30;100.00
23677;BME280;31493;49.058;12.190;2023-03-22T06:39:57;95798.28;;;8.33;100.00
23677;BME280;31493;49.058;12.190;2023-03-22T06:42:24;95788.03;;;8.46;100.00
23677;BME280;31493;49.058;12.190;2023-03-22T06:44:51;95794.28;;;8.56;100.00
23677;BME280;31493;49.058;12.190;2023-03-22T06:47:18;95792.94;;;8.64;100.00
23677;BME280;31493;49.058;12.190;2023-03-22T06:49:47;95796.16;;;8.67;100.00
23677;BME280;31493;49.058;12.190;2023-03-22T06:52:14;95790.88;;;8.56;100.00
23677;BME280;31493;49.058;12.190;2023-03-22T06:54:41;95800.97;;;8.59;100.00
23677;BME280;31493;49.058;12.190;2023-03-22T06:57:08;95802.00;;;8.56;100.00
23677;BME280;31493;49.058;12.190;2023-03-22T06:59:35;95796.84;;;8.56;100.00
23677;BME280;31493;49.058;12.190;2023-03-22T07:02:02;95792.72;;;8.54;100.00
23677;BME280;31493;49.058;12.190;2023-03-22T07:04:30;95791.16;;;8.51;100.00
23677;BME280;31493;49.058;12.190;2023-03-22T07:07:00;95807.06;;;8.58;100.00
23677;BME280;31493;49.058;12.190;2023-03-22T07:09:28;95796.66;;;8.59;100.00
23677;BME280;31493;49.058;12.190;2023-03-22T07:11:55;95812.06;;;8.61;100.00
23677;BME280;31493;49.058;12.190;2023-03-22T07:14:22;95809.47;;;8.61;100.00
23677;BME280;31493;49.058;12.190;2023-03-22T07:16:49;95807.84;;;8.73;100.00
23677;BME280;31493;49.058;12.190;2023-03-22T07:19:16;95799.56;;;8.68;100.00
23677;BME280;31493;49.058;12.190;2023-03-22T07:21:43;95811.66;;;8.67;100.00
23677;BME280;31493;49.058;12.190;2023-03-22T07:24:11;95804.63;;;8.69;100.00
23677;BME280;31493;49.058;12.190;2023-03-22T07:26:38;95795.56;;;8.76;100.00
23677;BME280;31493;49.058;12.190;2023-03-22T07:29:06;95800.81;;;8.75;100.00
23677;BME280;31493;49.058;12.190;2023-03-22T07:31:34;95811.78;;;8.78;100.00
23677;BME280;31493;49.058;12.190;2023-03-22T07:34:01;95804.38;;;8.86;100.00
23677;BME280;31493;49.058;12.190;2023-03-22T07:36:29;95818.53;;;8.94;100.00
23677;BME280;31493;49.058;12.190;2023-03-22T07:38:56;95813.19;;;8.97;100.00
23677;BME280;31493;49.058;12.190;2023-03-22T07:41:24;95816.78;;;9.07;100.00
23677;BME280;31493;49.058;12.190;2023-03-22T07:43:53;95814.31;;;8.93;100.00
23677;BME280;31493;49.058;12.190;2023-03-22T07:46:20;95814.63;;;9.01;100.00
23677;BME280;31493;49.058;12.190;2023-03-22T07:48:47;95816.38;;;9.13;100.00
23677;BME280;31493;49.058;12.190;2023-03-22T07:51:14;95822.19;;;9.29;100.00
23677;BME280;31493;49.058;12.190;2023-03-22T07:53:41;95811.16;;;9.40;100.00
23677;BME280;31493;49.058;12.190;2023-03-22T07:56:08;95810.75;;;9.46;100.00
23677;BME280;31493;49.058;12.190;2023-03-22T07:58:37;95817.97;;;9.54;100.00
23677;BME280;31493;49.058;12.190;2023-03-22T08:01:05;95821.16;;;9.57;100.00
23677;BME280;31493;49.058;12.190;2023-03-22T08:03:34;95810.50;;;9.75;100.00
23677;BME280;31493;49.058;12.190;2023-03-22T08:06:01;95811.09;;;9.91;100.00
23677;BME280;31493;49.058;12.190;2023-03-22T08:08:31;95811.00;;;9.92;100.00
23677;BME280;31493;49.058;12.190;2023-03-22T08:10:58;95821.75;;;9.99;100.00
23677;BME280;31493;49.058;12.190;2023-03-22T08:13:26;95810.63;;;10.22;100.00
23677;BME280;31493;49.058;12.190;2023-03-22T08:15:54;95806.50;;;10.33;100.00
23677;BME280;31493;49.058;12.190;2023-03-22T08:18:21;95815.28;;;10.30;100.00
23677;BME280;31493;49.058;12.190;2023-03-22T08:20:52;95811.50;;;10.47;100.00
23677;BME280;31493;49.058;12.190;2023-03-22T08:23:19;95810.94;;;10.55;100.00
23677;BME280;31493;49.058;12.190;2023-03-22T08:25:46;95817.94;;;10.65;100.00
23677;BME280;31493;49.058;12.190;2023-03-22T08:28:13;95818.13;;;10.86;100.00
23677;BME280;31493;49.058;12.190;2023-03-22T08:30:40;95821.53;;;10.75;100.00
23677;BME280;31493;49.058;12.190;2023-03-22T08:33:09;95809.09;;;10.81;98.83
23677;BME280;31493;49.058;12.190;2023-03-22T08:35:36;95815.66;;;10.85;97.42
23677;BME280;31493;49.058;12.190;2023-03-22T08:38:03;95828.47;;;10.99;97.51
23677;BME280;31493;49.058;12.190;2023-03-22T08:40:30;95821.38;;;11.01;98.31
23677;BME280;31493;49.058;12.190;2023-03-22T08:42:57;95824.13;;;11.11;98.32
23677;BME280;31493;49.058;12.190;2023-03-22T08:45:25;95823.69;;;11.28;97.53
23677;BME280;31493;49.058;12.190;2023-03-22T08:47:52;95818.41;;;11.29;95.92
23677;BME280;31493;49.058;12.190;2023-03-22T08:50:20;95817.34;;;11.32;96.27
23677;BME280;31493;49.058;12.190;2023-03-22T08:52:47;95819.41;;;11.62;98.49
23677;BME280;31493;49.058;12.190;2023-03-22T08:55:15;95817.97;;;11.36;96.15
23677;BME280;31493;49.058;12.190;2023-03-22T08:57:43;95814.31;;;11.72;95.13
23677;BME280;31493;49.058;12.190;2023-03-22T09:00:16;95810.81;;;11.84;96.62
23677;BME280;31493;49.058;12.190;2023-03-22T09:02:43;95807.41;;;11.72;93.22
23677;BME280;31493;49.058;12.190;2023-03-22T09:05:10;95810.09;;;11.71;94.74
23677;BME280;31493;49.058;12.190;2023-03-22T09:07:40;95810.69;;;11.74;92.35
23677;BME280;31493;49.058;12.190;2023-03-22T09:10:08;95805.84;;;11.58;92.39
23677;BME280;31493;49.058;12.190;2023-03-22T09:12:36;95811.78;;;11.94;95.18
23677;BME280;31493;49.058;12.190;2023-03-22T09:15:04;95792.53;;;12.19;93.50
23677;BME280;31493;49.058;12.190;2023-03-22T09:17:32;95803.22;;;12.48;91.70
23677;BME280;31493;49.058;12.190;2023-03-22T09:19:58;95784.84;;;12.29;91.69
23677;BME280;31493;49.058;12.190;2023-03-22T09:22:26;95780.34;;;12.42;91.02
23677;BME280;31493;49.058;12.190;2023-03-22T09:24:54;95781.38;;;12.40;90.42
23677;BME280;31493;49.058;12.190;2023-03-22T09:27:21;95784.25;;;12.25;92.12
23677;BME280;31493;49.058;12.190;2023-03-22T09:29:48;95784.78;;;12.51;91.84
23677;BME280;31493;49.058;12.190;2023-03-22T09:32:17;95777.75;;;12.31;92.17
23677;BME280;31493;49.058;12.190;2023-03-22T09:34:44;95773.56;;;12.51;89.92
23677;BME280;31493;49.058;12.190;2023-03-22T09:37:11;95777.00;;;12.51;91.02
23677;BME280;31493;49.058;12.190;2023-03-22T09:39:39;95776.44;;;12.48;90.32
23677;BME280;31493;49.058;12.190;2023-03-22T09:42:24;95775.41;;;12.71;93.58
23677;BME280;31493;49.058;12.190;2023-03-22T09:44:54;95776.94;;;12.95;85.91
23677;BME280;31493;49.058;12.190;2023-03-22T09:47:30;95765.34;;;13.19;89.74
23677;BME280;31493;49.058;12.190;2023-03-22T09:50:04;95775.06;;;13.17;84.55
23677;BME280;31493;49.058;12.190;2023-03-22T09:52:32;95770.56;;;13.40;87.02
23677;BME280;31493;49.058;12.190;2023-03-22T09:55:00;95776.88;;;13.06;89.94
23677;BME280;31493;49.058;12.190;2023-03-22T09:57:32;95767.06;;;13.09;85.43
23677;BME280;31493;49.058;12.190;2023-03-22T10:00:06;95759.88;;;13.34;84.39
23677;BME280;31493;49.058;12.190;2023-03-22T10:02:46;95763.16;;;13.36;84.86
23677;BME280;31493;49.058;12.190;2023-03-22T10:05:20;95759.13;;;13.11;85.11
23677;BME280;31493;49.058;12.190;2023-03-22T10:08:03;95760.84;;;13.63;88.23
23677;BME280;31493;49.058;12.190;2023-03-22T10:10:35;95752.75;;;13.66;82.44
23677;BME280;31493;49.058;12.190;2023-03-22T10:13:13;95753.28;;;13.60;82.78
23677;BME280;31493;49.058;12.190;2023-03-22T10:15:46;95759.97;;;13.84;83.28
23677;BME280;31493;49.058;12.190;2023-03-22T10:18:17;95747.28;;;14.00;81.06
23677;BME280;31493;49.058;12.190;2023-03-22T10:20:48;95745.75;;;14.47;84.98
23677;BME280;31493;49.058;12.190;2023-03-22T10:23:19;95743.41;;;14.54;80.00
23677;BME280;31493;49.058;12.190;2023-03-22T10:25:46;95749.78;;;14.21;81.76
23677;BME280;31493;49.058;12.190;2023-03-22T10:28:18;95750.69;;;14.89;83.48
23677;BME280;31493;49.058;12.190;2023-03-22T10:30:49;95755.63;;;14.92;78.01
23677;BME280;31493;49.058;12.190;2023-03-22T10:33:25;95754.69;;;14.93;80.11
23677;BME280;31493;49.058;12.190;2023-03-22T10:35:54;95753.03;;;14.63;75.47
23677;BME280;31493;49.058;12.190;2023-03-22T10:38:24;95739.28;;;14.90;74.59
23677;BME280;31493;49.058;12.190;2023-03-22T10:40:53;95751.19;;;14.44;75.62
23677;BME280;31493;49.058;12.190;2023-03-22T10:43:27;95745.34;;;15.10;72.35
23677;BME280;31493;49.058;12.190;2023-03-22T10:45:56;95744.47;;;15.19;70.44
23677;BME280;31493;49.058;12.190;2023-03-22T10:48:27;95740.09;;;15.20;72.24
23677;BME280;31493;49.058;12.190;2023-03-22T10:50:55;95731.34;;;15.68;69.22
23677;BME280;31493;49.058;12.190;2023-03-22T10:53:29;95742.53;;;15.41;67.04
23677;BME280;31493;49.058;12.190;2023-03-22T10:55:58;95739.22;;;15.39;62.80
23677;BME280;31493;49.058;12.190;2023-03-22T10:58:30;95731.91;;;15.89;65.19
23677;BME280;31493;49.058;12.190;2023-03-22T11:00:59;95731.41;;;15.85;63.07
23677;BME280;31493;49.058;12.190;2023-03-22T11:03:30;95739.81;;;15.79;60.87
23677;BME280;31493;49.058;12.190;2023-03-22T11:06:06;95737.75;;;16.01;60.43
23677;BME280;31493;49.058;12.190;2023-03-22T11:08:41;95735.53;;;16.33;58.68
23677;BME280;31493;49.058;12.190;2023-03-22T11:11:18;95728.22;;;16.37;57.95
23677;BME280;31493;49.058;12.190;2023-03-22T11:13:54;95730.66;;;16.84;58.78
23677;BME280;31493;49.058;12.190;2023-03-22T11:16:22;95734.84;;;16.31;57.21
23677;BME280;31493;49.058;12.190;2023-03-22T11:18:49;95701.88;;;16.84;54.80
23677;BME280;31493;49.058;12.190;2023-03-22T11:21:18;95727.44;;;16.72;56.84
23677;BME280;31493;49.058;12.190;2023-03-22T11:23:54;95720.78;;;16.78;56.03
23677;BME280;31493;49.058;12.190;2023-03-22T11:26:26;95703.34;;;16.69;59.44
23677;BME280;31493;49.058;12.190;2023-03-22T11:29:03;95713.00;;;16.86;58.91
23677;BME280;31493;49.058;12.190;2023-03-22T11:31:50;95705.78;;;16.80;53.65
23677;BME280;31493;49.058;12.190;2023-03-22T11:34:19;95702.69;;;16.49;51.90
23677;BME280;31493;49.058;12.190;2023-03-22T11:36:47;95710.09;;;17.67;54.78
23677;BME280;31493;49.058;12.190;2023-03-22T11:39:22;95698.59;;;17.86;53.41
23677;BME280;31493;49.058;12.190;2023-03-22T11:41:51;95688.59;;;17.55;52.96
23677;BME280;31493;49.058;12.190;2023-03-22T11:44:21;95694.50;;;17.83;55.14
23677;BME280;31493;49.058;12.190;2023-03-22T11:46:53;95687.56;;;17.40;53.01
23677;BME280;31493;49.058;12.190;2023-03-22T11:49:24;95678.91;;;17.13;51.51
23677;BME280;31493;49.058;12.190;2023-03-22T11:51:54;95670.25;;;17.47;51.22
23677;BME280;31493;49.058;12.190;2023-03-22T11:54:26;95679.50;;;18.02;54.56
23677;BME280;31493;49.058;12.190;2023-03-22T11:56:56;95674.63;;;18.07;51.45
23677;BME280;31493;49.058;12.190;2023-03-22T11:59:28;95675.66;;;17.80;50.71
23677;BME280;31493;49.058;12.190;2023-03-22T12:01:59;95670.06;;;18.17;50.99
23677;BME280;31493;49.058;12.190;2023-03-22T12:04:33;95670.00;;;17.66;49.35
23677;BME280;31493;49.058;12.190;2023-03-22T12:07:04;95664.06;;;17.22;50.32
23677;BME280;31493;49.058;12.190;2023-03-22T12:09:37;95657.75;;;18.09;53.10
23677;BME280;31493;49.058;12.190;2023-03-22T12:12:11;95659.97;;;17.54;50.62
23677;BME280;31493;49.058;12.190;2023-03-22T12:14:45;95637.09;;;17.98;51.79
23677;BME280;31493;49.058;12.190;2023-03-22T12:17:17;95646.16;;;18.12;50.41
23677;BME280;31493;49.058;12.190;2023-03-22T12:19:56;95640.28;;;18.50;51.62
23677;BME280;31493;49.058;12.190;2023-03-22T12:22:28;95647.78;;;18.29;49.61
23677;BME280;31493;49.058;12.190;2023-03-22T12:24:57;95634.00;;;18.03;50.76
23677;BME280;31493;49.058;12.190;2023-03-22T12:27:27;95628.50;;;17.71;50.41
23677;BME280;31493;49.058;12.190;2023-03-22T12:30:01;95631.09;;;18.30;50.78
23677;BME280;31493;49.058;12.190;2023-03-22T12:32:33;95626.19;;;18.19;50.25
23677;BME280;31493;49.058;12.190;2023-03-22T12:35:04;95631.72;;;17.57;48.53
23677;BME280;31493;49.058;12.190;2023-03-22T12:37:34;95625.69;;;17.65;49.26
23677;BME280;31493;49.058;12.190;2023-03-22T12:40:03;95620.72;;;18.04;50.19
23677;BME280;31493;49.058;12.190;2023-03-22T12:42:35;95622.34;;;17.81;49.51
23677;BME280;31493;49.058;12.190;2023-03-22T12:45:10;95621.59;;;17.62;48.45
23677;BME280;31493;49.058;12.190;2023-03-22T12:47:41;95611.19;;;17.79;49.85
23677;BME280;31493;49.058;12.190;2023-03-22T12:50:12;95607.56;;;17.71;50.29
23677;BME280;31493;49.058;12.190;2023-03-22T12:52:43;95611.88;;;17.55;49.49
23677;BME280;31493;49.058;12.190;2023-03-22T12:55:19;95605.63;;;17.39;49.44
23677;BME280;31493;49.058;12.190;2023-03-22T12:57:47;95597.81;;;17.48;50.44
23677;BME280;31493;49.058;12.190;2023-03-22T13:00:25;95609.66;;;17.26;49.20
23677;BME280;31493;49.058;12.190;2023-03-22T13:02:57;95613.00;;;17.44;49.05
23677;BME280;31493;49.058;12.190;2023-03-22T13:05:27;95582.63;;;17.17;51.22
23677;BME280;31493;49.058;12.190;2023-03-22T13:07:55;95605.00;;;17.45;53.56
23677;BME280;31493;49.058;12.190;2023-03-22T13:10:48;95595.59;;;17.69;51.54